Time;durP1;ratioP1;P1;durP2;ratioP2;P2;SDS_P1;SDS_P2;PMS_P1;PMS_P2;Temp;Humidity;BMP_temperature;BMP_pressure;BME280_temperature;BME280_humidity;BME280_pressure;Samples;Min_cycle;Max_cycle;Signal;HPM_P1;HPM_P2
2021/05/18 00:02:20;;;;;;;0.73;0.10;;;;;;;;;;5095944;28;20458;-66
2021/05/18 00:04:46;;;;;;;0.93;0.03;;;;;;;;;;5100718;28;20031;-66
2021/05/18 00:07:16;;;;;;;1.17;0.10;;;;;;;;;;5114364;28;20019;-66
2021/05/18 00:12:25;;;;;;;1.45;0.10;;;;;;;;;;5107982;28;20394;-66
2021/05/18 00:14:50;;;;;;;0.90;0.10;;;;;;;;;;5110794;28;20020;-66
2021/05/18 00:17:15;;;;;;;0.40;0.10;;;;;;;;;;5097815;28;20016;-66
2021/05/18 00:19:41;;;;;;;1.50;0.15;;;;;;;;;;5103234;28;20124;-66
2021/05/18 00:22:06;;;;;;;0.32;0.10;;;;;;;;;;5105180;28;20493;-66
2021/05/18 00:24:31;;;;;;;0.88;0.17;;;;;;;;;;5110467;28;20012;-66
2021/05/18 00:26:59;;;;;;;1.05;0.10;;;;;;;;;;5113835;28;20531;-66
2021/05/18 00:29:24;;;;;;;1.35;0.20;;;;;;;;;;5112620;28;20079;-66
2021/05/18 00:31:50;;;;;;;0.80;0.20;;;;;;;;;;5104669;28;20047;-66
2021/05/18 00:34:15;;;;;;;0.28;0.15;;;;;;;;;;5103150;28;20480;-66
2021/05/18 00:36:40;;;;;;;1.00;0.30;;;;;;;;;;5112443;28;20019;-66
2021/05/18 00:39:05;;;;;;;0.10;0.10;;;;;;;;;;5105776;28;20434;-66
2021/05/18 00:41:31;;;;;;;0.95;0.30;;;;;;;;;;5103322;28;20368;-66
2021/05/18 00:43:56;;;;;;;1.02;0.20;;;;;;;;;;5094678;28;20020;-67
2021/05/18 00:46:23;;;;;;;0.35;0.20;;;;;;;;;;5105299;28;20013;-66
2021/05/18 00:48:58;;;;;;;0.52;0.20;;;;;;;;;;5091554;28;20077;-66
2021/05/18 00:51:24;;;;;;;0.20;0.20;;;;;;;;;;5112968;28;20463;-66
2021/05/18 00:53:49;;;;;;;1.20;0.30;;;;;;;;;;5093510;28;20305;-66
2021/05/18 00:58:59;;;;;;;0.98;0.50;;;;;;;;;;5112878;28;20031;-66
2021/05/18 01:01:25;;;;;;;1.70;0.40;;;;;;;;;;5109210;28;20028;-66
2021/05/18 01:03:51;;;;;;;0.82;0.30;;;;;;;;;;5090536;28;20019;-66
2021/05/18 01:06:30;;;;;;;0.82;0.30;;;;;;;;;;5093660;28;20447;-66
2021/05/18 01:09:07;;;;;;;1.05;0.50;;;;;;;;;;5091475;28;20249;-66
2021/05/18 01:11:32;;;;;;;0.82;0.40;;;;;;;;;;5103146;28;20095;-66
2021/05/18 01:14:02;;;;;;;0.70;0.40;;;;;;;;;;5104339;28;20107;-66
2021/05/18 01:16:28;;;;;;;1.00;0.35;;;;;;;;;;5105385;28;20023;-66
2021/05/18 01:18:54;;;;;;;1.85;0.43;;;;;;;;;;5092429;28;20111;-66
2021/05/18 01:21:19;;;;;;;2.22;0.63;;;;;;;;;;5111794;28;20094;-66
2021/05/18 01:23:45;;;;;;;1.20;0.73;;;;;;;;;;5104156;28;20019;-66
2021/05/18 01:26:11;;;;;;;2.13;0.93;;;;;;;;;;5089938;28;20099;-66
2021/05/18 01:28:36;;;;;;;1.80;0.60;;;;;;;;;;5100654;28;20424;-66
2021/05/18 01:31:02;;;;;;;1.13;0.60;;;;;;;;;;5094114;28;20028;-66
2021/05/18 01:33:28;;;;;;;1.75;0.95;;;;;;;;;;5092893;28;20067;-66
2021/05/18 01:35:54;;;;;;;1.67;0.95;;;;;;;;;;5090630;28;20486;-66
2021/05/18 01:38:23;;;;;;;1.30;0.88;;;;;;;;;;5092563;28;20502;-66
2021/05/18 01:43:33;;;;;;;2.08;1.17;;;;;;;;;;5099921;28;20104;-66
2021/05/18 01:45:58;;;;;;;1.63;1.40;;;;;;;;;;5089623;28;20111;-66
2021/05/18 01:48:24;;;;;;;2.28;1.17;;;;;;;;;;5092429;28;20024;-66
2021/05/18 01:50:49;;;;;;;2.08;1.60;;;;;;;;;;5090815;28;20023;-66
2021/05/18 01:53:16;;;;;;;3.40;2.10;;;;;;;;;;5092321;28;20028;-66
2021/05/18 01:58:10;;;;;;;2.90;2.50;;;;;;;;;;5095436;28;20013;-66
2021/05/18 02:00:37;;;;;;;3.35;1.80;;;;;;;;;;5097594;28;20395;-66
2021/05/18 02:03:03;;;;;;;2.83;1.77;;;;;;;;;;5100993;28;20016;-65
2021/05/18 02:05:30;;;;;;;2.03;1.23;;;;;;;;;;5095625;28;20028;-66
2021/05/18 02:07:56;;;;;;;2.25;1.08;;;;;;;;;;5107387;28;20023;-65
2021/05/18 02:10:22;;;;;;;1.60;1.10;;;;;;;;;;5112495;28;20026;-65
2021/05/18 02:12:48;;;;;;;1.75;1.17;;;;;;;;;;5097196;28;20374;-65
2021/05/18 02:15:28;;;;;;;2.65;1.10;;;;;;;;;;5093706;28;20399;-66
2021/05/18 02:21:02;;;;;;;1.92;1.10;;;;;;;;;;5095970;28;20024;-67
2021/05/18 02:26:12;;;;;;;1.70;0.80;;;;;;;;;;5094869;28;20060;-66
2021/05/18 02:28:37;;;;;;;1.35;1.27;;;;;;;;;;5095529;28;20016;-66
2021/05/18 02:31:03;;;;;;;2.17;1.20;;;;;;;;;;5115840;28;20450;-66
2021/05/18 02:33:28;;;;;;;0.73;0.65;;;;;;;;;;5101782;28;20491;-67
2021/05/18 02:35:53;;;;;;;1.85;0.95;;;;;;;;;;5092535;28;20031;-66
2021/05/18 02:38:18;;;;;;;2.25;1.65;;;;;;;;;;5108700;28;20015;-66
2021/05/18 02:40:44;;;;;;;2.75;2.10;;;;;;;;;;5110207;28;20020;-66
2021/05/18 02:43:14;;;;;;;2.22;2.03;;;;;;;;;;5102446;28;20031;-66
2021/05/18 02:50:48;;;;;;;2.25;2.05;;;;;;;;;;5114815;28;20027;-66
2021/05/18 02:53:14;;;;;;;3.28;2.38;;;;;;;;;;5101744;28;20016;-66
2021/05/18 02:56:00;;;;;;;2.22;2.03;;;;;;;;;;5093768;28;20085;-66
2021/05/18 02:58:26;;;;;;;3.33;2.40;;;;;;;;;;5100283;28;20020;-66
2021/05/18 03:00:52;;;;;;;1.48;0.90;;;;;;;;;;5103388;28;20022;-66
2021/05/18 03:03:17;;;;;;;4.50;3.10;;;;;;;;;;5109212;28;20110;-66
2021/05/18 03:05:43;;;;;;;5.05;2.83;;;;;;;;;;5112443;28;20095;-66
2021/05/18 03:08:08;;;;;;;2.75;2.55;;;;;;;;;;5104351;28;20024;-66
2021/05/18 03:10:33;;;;;;;2.67;2.47;;;;;;;;;;5101187;28;20046;-66
2021/05/18 03:13:00;;;;;;;3.17;2.38;;;;;;;;;;5093529;28;20036;-66
2021/05/18 03:15:25;;;;;;;2.75;2.03;;;;;;;;;;5095596;28;20073;-66
2021/05/18 03:17:50;;;;;;;1.98;1.63;;;;;;;;;;5105386;28;20425;-66
2021/05/18 03:20:17;;;;;;;2.65;2.45;;;;;;;;;;5102173;28;20020;-66
2021/05/18 03:22:42;;;;;;;3.00;2.50;;;;;;;;;;5113354;28;20020;-66
2021/05/18 03:25:09;;;;;;;2.85;2.65;;;;;;;;;;5111703;28;20477;-66
2021/05/18 03:27:34;;;;;;;2.70;2.50;;;;;;;;;;5109413;28;20090;-66
2021/05/18 03:30:11;;;;;;;3.45;2.25;;;;;;;;;;5093200;28;20181;-66
2021/05/18 03:35:20;;;;;;;3.10;2.90;;;;;;;;;;5111962;28;20072;-66
2021/05/18 03:40:14;;;;;;;5.72;3.50;;;;;;;;;;5096349;28;20032;-65
2021/05/18 03:42:45;;;;;;;2.40;1.40;;;;;;;;;;5113162;28;20490;-66
2021/05/18 04:17:23;;;;;;;3.83;3.15;;;;;;;;;;5112376;28;20049;-65
2021/05/18 04:20:04;;;;;;;6.18;3.30;;;;;;;;;;5112841;28;20466;-65
2021/05/18 04:22:37;;;;;;;3.13;2.67;;;;;;;;;;5113786;28;20019;-65
2021/05/18 04:25:29;;;;;;;2.08;1.67;;;;;;;;;;5090531;28;20024;-66
2021/05/18 04:38:42;;;;;;;1.88;1.77;;;;;;;;;;5093650;28;20097;-66
2021/05/18 04:39:15;;;;;;;2.22;2.00;;;;;;;;;;5113729;28;20030;-65
2021/05/18 04:52:06;;;;;;;3.97;1.83;;;;;;;;;;5112008;28;20020;-66
2021/05/18 05:00:13;;;;;;;3.20;2.25;;;;;;;;;;5093132;28;20031;-66
2021/05/18 05:08:17;;;;;;;3.13;2.15;;;;;;;;;;5092900;28;20027;-66
2021/05/18 05:15:48;;;;;;;5.03;2.42;;;;;;;;;;5094792;28;20020;-67
2021/05/18 05:18:13;;;;;;;3.65;2.97;;;;;;;;;;5091217;28;20024;-67
2021/05/18 05:20:39;;;;;;;2.90;2.65;;;;;;;;;;5093082;28;20016;-66
2021/05/18 05:23:04;;;;;;;2.22;1.55;;;;;;;;;;5092690;28;20016;-66
2021/05/18 05:25:30;;;;;;;3.33;2.60;;;;;;;;;;5090118;28;20540;-66
2021/05/18 05:27:55;;;;;;;1.67;1.42;;;;;;;;;;5091134;28;20016;-66
2021/05/18 05:30:21;;;;;;;3.72;2.28;;;;;;;;;;5096430;28;20044;-66
2021/05/18 05:32:46;;;;;;;3.35;2.25;;;;;;;;;;5093199;28;20043;-66
2021/05/18 05:35:11;;;;;;;3.33;2.65;;;;;;;;;;5100991;28;20047;-66
2021/05/18 05:37:37;;;;;;;6.20;1.55;;;;;;;;;;5092341;28;20020;-66
2021/05/18 05:40:03;;;;;;;2.42;1.90;;;;;;;;;;5095191;28;20073;-66
2021/05/18 05:42:28;;;;;;;5.72;2.00;;;;;;;;;;5108575;28;20023;-66
2021/05/18 05:44:54;;;;;;;4.65;2.10;;;;;;;;;;5109571;28;20390;-66
2021/05/18 05:47:19;;;;;;;4.45;1.80;;;;;;;;;;5096646;28;20095;-66
2021/05/18 05:49:44;;;;;;;3.22;2.10;;;;;;;;;;5104847;28;20047;-66
2021/05/18 05:52:20;;;;;;;2.30;1.75;;;;;;;;;;5097341;28;20035;-65
2021/05/18 05:54:45;;;;;;;2.75;2.45;;;;;;;;;;5093938;28;20031;-65
2021/05/18 05:57:11;;;;;;;4.03;1.85;;;;;;;;;;5091319;28;20023;-66
2021/05/18 05:59:36;;;;;;;4.88;2.45;;;;;;;;;;5104427;28;20038;-66
2021/05/18 06:02:03;;;;;;;2.58;1.85;;;;;;;;;;5090946;28;20099;-66
2021/05/18 06:04:29;;;;;;;2.58;1.52;;;;;;;;;;5092433;28;20024;-66
2021/05/18 06:06:54;;;;;;;2.33;1.33;;;;;;;;;;5098560;28;20024;-65
2021/05/18 06:09:19;;;;;;;4.30;1.33;;;;;;;;;;5106232;28;20035;-66
2021/05/18 06:41:47;;;;;;;2.63;2.13;;;;;;;;;;5106385;28;20024;-67
2021/05/18 06:47:13;;;;;;;5.13;1.73;;;;;;;;;;5104992;28;20031;-66
2021/05/18 06:49:41;;;;;;;3.53;2.58;;;;;;;;;;5107990;28;20027;-67
2021/05/18 06:52:06;;;;;;;7.13;3.42;;;;;;;;;;5109220;28;20052;-66
2021/05/18 06:54:32;;;;;;;5.07;3.58;;;;;;;;;;5105850;28;20499;-66
2021/05/18 06:57:01;;;;;;;6.32;3.60;;;;;;;;;;5104996;28;20023;-66
2021/05/18 07:01:56;;;;;;;5.10;3.10;;;;;;;;;;5108868;28;20023;-66
2021/05/18 07:04:23;;;;;;;6.47;2.97;;;;;;;;;;5107505;28;20474;-66
2021/05/18 07:06:52;;;;;;;1.90;1.40;;;;;;;;;;5112420;28;20103;-68
2021/05/18 07:09:17;;;;;;;3.97;1.85;;;;;;;;;;5099271;28;20421;-68
2021/05/18 07:11:42;;;;;;;4.70;4.18;;;;;;;;;;5100090;28;20156;-68
2021/05/18 07:14:07;;;;;;;7.72;3.53;;;;;;;;;;5104555;28;20235;-68
2021/05/18 07:16:33;;;;;;;3.60;2.10;;;;;;;;;;5103771;28;20027;-67
2021/05/18 07:18:58;;;;;;;5.18;3.45;;;;;;;;;;5111159;28;20106;-67
2021/05/18 07:21:23;;;;;;;7.13;3.63;;;;;;;;;;5114428;28;20482;-67
2021/05/18 07:23:50;;;;;;;7.75;3.40;;;;;;;;;;5104564;28;20374;-67
2021/05/18 07:26:15;;;;;;;6.57;4.40;;;;;;;;;;5110333;27;20085;-66
2021/05/18 07:28:40;;;;;;;3.45;1.67;;;;;;;;;;5108812;28;20458;-68
2021/05/18 07:31:06;;;;;;;9.88;3.42;;;;;;;;;;5103357;28;20051;-67
2021/05/18 07:33:32;;;;;;;4.68;3.42;;;;;;;;;;5098648;28;20031;-66
2021/05/18 07:35:59;;;;;;;5.35;3.25;;;;;;;;;;5097112;28;20032;-66
2021/05/18 07:38:25;;;;;;;6.18;3.88;;;;;;;;;;5093174;28;20093;-66
2021/05/18 07:40:50;;;;;;;4.82;3.97;;;;;;;;;;5111296;28;20069;-67
2021/05/18 07:43:17;;;;;;;5.78;3.38;;;;;;;;;;5099631;28;20026;-67
2021/05/18 07:45:46;;;;;;;5.45;2.67;;;;;;;;;;5091669;28;20018;-67
2021/05/18 07:48:18;;;;;;;5.13;2.72;;;;;;;;;;5111326;28;20046;-67
2021/05/18 07:51:00;;;;;;;3.92;2.17;;;;;;;;;;5093875;28;20026;-66
2021/05/18 08:07:22;;;;;;;6.53;3.67;;;;;;;;;;5048657;28;20137;-65
2021/05/18 08:09:53;;;;;;;6.03;3.70;;;;;;;;;;5047896;28;20113;-64
2021/05/18 08:12:19;;;;;;;3.88;2.67;;;;;;;;;;5034127;28;20037;-65
2021/05/18 08:14:49;;;;;;;6.88;3.83;;;;;;;;;;5030930;28;20499;-65
2021/05/18 08:17:21;;;;;;;4.47;2.35;;;;;;;;;;5046237;28;20078;-65
2021/05/18 08:46:31;;;;;;;8.65;4.43;;;;;;;;;;5033826;28;20066;-65
2021/05/18 09:37:16;;;;;;;8.43;5.55;;;;;;;;;;5101196;28;20494;-63
2021/05/18 10:21:37;;;;;;;7.18;5.00;;;;;;;;;;5024086;28;20039;-63
2021/05/18 10:35:48;;;;;;;7.07;4.88;;;;;;;;;;5097137;28;20478;-63
2021/05/18 10:38:18;;;;;;;4.80;4.30;;;;;;;;;;5107528;28;20023;-63
2021/05/18 10:40:43;;;;;;;4.85;2.65;;;;;;;;;;5095511;28;20016;-63
2021/05/18 10:43:19;;;;;;;4.75;3.20;;;;;;;;;;5095536;28;20017;-63
2021/05/18 10:46:01;;;;;;;5.53;3.38;;;;;;;;;;5093321;28;20446;-63
2021/05/18 10:48:27;;;;;;;5.45;3.42;;;;;;;;;;5099006;28;20020;-63
2021/05/18 10:50:52;;;;;;;5.53;3.53;;;;;;;;;;5101658;28;20008;-63
2021/05/18 10:53:22;;;;;;;4.68;2.92;;;;;;;;;;5107541;28;20019;-63
2021/05/18 10:56:07;;;;;;;6.65;3.35;;;;;;;;;;5105247;28;20014;-63
2021/05/18 10:58:32;;;;;;;4.35;2.47;;;;;;;;;;5095150;28;20387;-63
2021/05/18 11:00:58;;;;;;;4.63;3.30;;;;;;;;;;5102163;28;20024;-64
2021/05/18 11:03:23;;;;;;;4.93;2.75;;;;;;;;;;5114207;28;20019;-63
2021/05/18 11:05:50;;;;;;;6.13;3.17;;;;;;;;;;5112224;28;20424;-63
2021/05/18 11:08:15;;;;;;;18.35;4.80;;;;;;;;;;5103953;28;20024;-64
2021/05/18 11:10:40;;;;;;;4.75;2.22;;;;;;;;;;5101297;28;20493;-64
2021/05/18 11:13:08;;;;;;;4.88;2.10;;;;;;;;;;5110800;28;20015;-64
2021/05/18 11:15:34;;;;;;;5.13;1.83;;;;;;;;;;5112237;28;20028;-64
2021/05/18 11:17:59;;;;;;;6.25;3.22;;;;;;;;;;5100258;28;20572;-64
2021/05/18 11:25:40;;;;;;;4.32;1.35;;;;;;;;;;5094735;28;20081;-64
2021/05/18 11:28:06;;;;;;;6.22;2.30;;;;;;;;;;5094693;28;20009;-63
2021/05/18 11:30:31;;;;;;;4.28;1.67;;;;;;;;;;5099469;28;20100;-64
2021/05/18 11:32:57;;;;;;;7.10;2.53;;;;;;;;;;5094342;28;20028;-64
2021/05/18 11:35:22;;;;;;;4.85;2.13;;;;;;;;;;5093294;28;20016;-64
2021/05/18 11:38:00;;;;;;;2.75;2.22;;;;;;;;;;5105980;28;20505;-64
2021/05/18 11:40:25;;;;;;;5.55;2.75;;;;;;;;;;5106477;28;20516;-64
2021/05/18 11:42:51;;;;;;;6.80;1.58;;;;;;;;;;5102758;28;20111;-64
2021/05/18 11:45:17;;;;;;;4.32;1.67;;;;;;;;;;5105887;28;20064;-62
2021/05/18 11:47:43;;;;;;;2.58;1.70;;;;;;;;;;5103059;28;20012;-62
2021/05/18 11:50:20;;;;;;;3.20;1.52;;;;;;;;;;5098247;28;20027;-62
2021/05/18 11:52:45;;;;;;;4.85;1.30;;;;;;;;;;5107818;28;21330;-62
2021/05/18 11:55:22;;;;;;;3.03;0.90;;;;;;;;;;5100914;28;20027;-63
2021/05/18 11:57:47;;;;;;;3.08;0.88;;;;;;;;;;5107480;28;20023;-62
2021/05/18 12:00:23;;;;;;;2.92;0.98;;;;;;;;;;5111680;28;20023;-63
2021/05/18 12:02:57;;;;;;;1.10;0.40;;;;;;;;;;5114343;28;20119;-63
2021/05/18 12:05:23;;;;;;;1.52;0.50;;;;;;;;;;5109995;28;20021;-63
2021/05/18 12:07:48;;;;;;;3.38;0.40;;;;;;;;;;5110052;28;20024;-64
2021/05/18 12:10:25;;;;;;;1.63;0.20;;;;;;;;;;5101794;28;20395;-63
2021/05/18 12:12:50;;;;;;;1.58;0.22;;;;;;;;;;5103749;28;20530;-64
2021/05/18 12:15:16;;;;;;;0.50;0.10;;;;;;;;;;5109926;28;20106;-63
2021/05/18 12:17:42;;;;;;;0.90;0.20;;;;;;;;;;5101985;28;20115;-64
2021/05/18 12:20:13;;;;;;;0.85;0.10;;;;;;;;;;5103810;28;20055;-64
2021/05/18 12:22:42;;;;;;;1.92;0.50;;;;;;;;;;5097121;28;20020;-64
2021/05/18 12:25:08;;;;;;;0.25;0.10;;;;;;;;;;5091724;28;20024;-64
2021/05/18 12:27:44;;;;;;;0.52;0.20;;;;;;;;;;5095194;28;20019;-64
2021/05/18 12:30:09;;;;;;;1.90;0.17;;;;;;;;;;5113650;28;20123;-64
2021/05/18 12:32:36;;;;;;;0.95;0.30;;;;;;;;;;5103005;28;20108;-64
2021/05/18 12:35:01;;;;;;;0.13;0.13;;;;;;;;;;5090175;28;20431;-65
2021/05/18 12:37:47;;;;;;;0.40;0.20;;;;;;;;;;5104941;28;20050;-64
2021/05/18 12:40:15;;;;;;;0.30;0.20;;;;;;;;;;5097514;28;20107;-64
2021/05/18 12:42:41;;;;;;;2.25;0.30;;;;;;;;;;5102905;28;20043;-64
2021/05/18 12:45:08;;;;;;;0.43;0.20;;;;;;;;;;5094712;28;20015;-63
2021/05/18 12:47:37;;;;;;;0.30;0.20;;;;;;;;;;5107980;27;20012;-63
2021/05/18 12:50:10;;;;;;;0.20;0.20;;;;;;;;;;5092925;28;20061;-63
2021/05/18 12:52:36;;;;;;;0.57;0.30;;;;;;;;;;5101194;28;20027;-63
2021/05/18 12:55:02;;;;;;;0.50;0.25;;;;;;;;;;5108737;28;20121;-64
2021/05/18 12:57:29;;;;;;;0.90;0.52;;;;;;;;;;5106664;28;20477;-64
2021/05/18 12:59:57;;;;;;;0.50;0.30;;;;;;;;;;5096080;28;20073;-64
2021/05/18 13:02:28;;;;;;;1.02;0.43;;;;;;;;;;5110901;28;20102;-63
2021/05/18 13:05:07;;;;;;;0.70;0.40;;;;;;;;;;5111304;28;20156;-63
2021/05/18 13:07:32;;;;;;;0.60;0.28;;;;;;;;;;5095999;28;20173;-63
2021/05/18 13:10:37;;;;;;;0.40;0.20;;;;;;;;;;5092710;28;20095;-64
2021/05/18 13:13:02;;;;;;;1.08;0.30;;;;;;;;;;5092709;28;20042;-64
2021/05/18 13:15:28;;;;;;;1.95;0.30;;;;;;;;;;5097549;28;20063;-63
2021/05/18 13:17:54;;;;;;;1.02;0.10;;;;;;;;;;5105043;28;20114;-64
2021/05/18 13:20:19;;;;;;;1.08;0.20;;;;;;;;;;5104399;28;20031;-63
2021/05/18 13:22:49;;;;;;;0.68;0.30;;;;;;;;;;5097880;28;20020;-63
2021/05/18 13:27:50;;;;;;;0.75;0.20;;;;;;;;;;5110499;28;20097;-65
2021/05/18 13:30:16;;;;;;;0.70;0.20;;;;;;;;;;5094510;28;20522;-65
2021/05/18 13:32:41;;;;;;;0.98;0.20;;;;;;;;;;5101609;28;20031;-65
2021/05/18 13:35:06;;;;;;;1.63;0.28;;;;;;;;;;5110346;28;20559;-64
2021/05/18 13:37:31;;;;;;;0.45;0.20;;;;;;;;;;5111330;28;20360;-65
2021/05/18 13:39:57;;;;;;;0.30;0.22;;;;;;;;;;5092159;28;20112;-65
2021/05/18 13:42:22;;;;;;;1.15;0.25;;;;;;;;;;5091048;28;20012;-64
2021/05/18 13:44:47;;;;;;;0.88;0.30;;;;;;;;;;5091354;28;20020;-64
2021/05/18 13:47:13;;;;;;;1.15;0.30;;;;;;;;;;5110128;28;20386;-63
2021/05/18 13:49:40;;;;;;;0.80;0.20;;;;;;;;;;5111709;28;20038;-64
2021/05/18 13:52:07;;;;;;;0.60;0.20;;;;;;;;;;5097397;28;20438;-65
2021/05/18 13:54:35;;;;;;;0.45;0.20;;;;;;;;;;5094710;28;20413;-65
2021/05/18 13:57:00;;;;;;;0.70;0.17;;;;;;;;;;5116546;28;20049;-65
2021/05/18 13:59:26;;;;;;;0.20;0.20;;;;;;;;;;5102621;28;20437;-64
2021/05/18 14:01:51;;;;;;;0.95;0.20;;;;;;;;;;5114557;28;20385;-65
2021/05/18 14:04:16;;;;;;;0.77;0.20;;;;;;;;;;5112579;28;20091;-64
2021/05/18 14:07:00;;;;;;;0.40;0.20;;;;;;;;;;5104133;28;20015;-64
2021/05/18 14:09:25;;;;;;;1.90;0.20;;;;;;;;;;5115762;28;20261;-65
2021/05/18 14:11:50;;;;;;;0.43;0.20;;;;;;;;;;5115509;28;20038;-65
2021/05/18 14:14:15;;;;;;;0.00;0.00;;;;;;;;;;5108180;28;21037;-65
2021/05/18 14:16:40;;;;;;;0.27;0.20;;;;;;;;;;5111719;28;20764;-65
2021/05/18 14:19:06;;;;;;;0.30;0.20;;;;;;;;;;5103117;28;20273;-65
2021/05/18 14:21:31;;;;;;;0.35;0.15;;;;;;;;;;5106852;28;20278;-65
2021/05/18 14:24:11;;;;;;;0.73;0.20;;;;;;;;;;5096981;28;20020;-65
2021/05/18 14:26:38;;;;;;;0.93;0.17;;;;;;;;;;5107987;28;20024;-65
2021/05/18 14:29:03;;;;;;;0.43;0.17;;;;;;;;;;5115118;28;20165;-65
2021/05/18 14:31:28;;;;;;;0.30;0.20;;;;;;;;;;5115372;28;20064;-65
2021/05/18 14:33:53;;;;;;;0.55;0.20;;;;;;;;;;5108716;28;20257;-65
2021/05/18 14:36:19;;;;;;;1.60;0.20;;;;;;;;;;5114803;28;20458;-65
2021/05/18 14:38:46;;;;;;;0.20;0.10;;;;;;;;;;5106921;28;20015;-65
2021/05/18 14:46:58;;;;;;;1.17;0.20;;;;;;;;;;5060560;28;20032;-64
2021/05/18 14:54:55;;;;;;;0.68;0.20;;;;;;;;;;5108492;28;20026;-64
2021/05/18 14:57:21;;;;;;;0.80;0.30;;;;;;;;;;5115187;28;20023;-64
2021/05/18 14:59:46;;;;;;;0.63;0.20;;;;;;;;;;5098272;27;20032;-64
2021/05/18 15:02:11;;;;;;;0.22;0.20;;;;;;;;;;5110319;28;20051;-65
2021/05/18 15:04:36;;;;;;;0.68;0.30;;;;;;;;;;5101635;28;20027;-64
2021/05/18 15:07:08;;;;;;;2.88;0.30;;;;;;;;;;5096884;28;20016;-65
2021/05/18 15:09:34;;;;;;;1.08;0.10;;;;;;;;;;5114768;28;20382;-65
2021/05/18 15:11:59;;;;;;;1.15;0.20;;;;;;;;;;5115434;28;20014;-65
2021/05/18 15:14:24;;;;;;;0.50;0.10;;;;;;;;;;5105063;28;20020;-64
2021/05/18 15:16:50;;;;;;;0.68;0.20;;;;;;;;;;5096961;28;20026;-65
2021/05/18 15:19:17;;;;;;;0.35;0.20;;;;;;;;;;5103485;27;20016;-64
2021/05/18 15:21:43;;;;;;;0.30;0.10;;;;;;;;;;5098194;28;20039;-65
2021/05/18 15:24:08;;;;;;;1.38;0.13;;;;;;;;;;5104288;28;20814;-65
2021/05/18 15:26:34;;;;;;;0.60;0.20;;;;;;;;;;5097085;28;20042;-65
2021/05/18 15:29:00;;;;;;;0.40;0.10;;;;;;;;;;5112711;28;20040;-64
2021/05/18 15:31:25;;;;;;;0.17;0.10;;;;;;;;;;5111690;28;20069;-64
2021/05/18 15:33:50;;;;;;;0.45;0.17;;;;;;;;;;5108714;28;20471;-64
2021/05/18 15:36:16;;;;;;;0.10;0.08;;;;;;;;;;5105433;28;20020;-64
2021/05/18 15:38:42;;;;;;;0.20;0.20;;;;;;;;;;5094791;27;20077;-64
2021/05/18 15:41:08;;;;;;;0.40;0.10;;;;;;;;;;5104269;28;20039;-64
2021/05/18 15:43:33;;;;;;;0.77;0.10;;;;;;;;;;5094185;28;20476;-64
2021/05/18 15:45:59;;;;;;;1.50;0.03;;;;;;;;;;5091423;28;20029;-63
2021/05/18 15:48:24;;;;;;;2.50;0.20;;;;;;;;;;5093927;28;20073;-62
2021/05/18 15:50:49;;;;;;;1.30;0.20;;;;;;;;;;5100565;28;20023;-61
2021/05/18 15:53:15;;;;;;;5.63;0.40;;;;;;;;;;5101231;28;20106;-61
2021/05/18 15:55:40;;;;;;;1.92;0.30;;;;;;;;;;5090713;28;20153;-61
2021/05/18 15:58:05;;;;;;;0.63;0.20;;;;;;;;;;5096946;28;20077;-61
2021/05/18 16:00:31;;;;;;;1.08;0.20;;;;;;;;;;5092474;28;20464;-61
2021/05/18 16:02:56;;;;;;;0.10;0.00;;;;;;;;;;5095423;28;20023;-61
2021/05/18 16:05:21;;;;;;;2.85;0.20;;;;;;;;;;5101167;28;20035;-61
2021/05/18 16:07:53;;;;;;;1.48;0.32;;;;;;;;;;5111337;28;20458;-62
2021/05/18 16:10:18;;;;;;;1.40;0.20;;;;;;;;;;5093590;28;20024;-61
2021/05/18 16:12:44;;;;;;;1.35;0.40;;;;;;;;;;5097890;28;20497;-61
2021/05/18 16:15:09;;;;;;;3.83;0.80;;;;;;;;;;5098418;28;20031;-64
2021/05/18 16:17:34;;;;;;;2.15;0.70;;;;;;;;;;5098627;28;20026;-63
2021/05/18 16:20:00;;;;;;;1.83;0.70;;;;;;;;;;5095496;28;20020;-62
2021/05/18 16:22:25;;;;;;;2.33;0.77;;;;;;;;;;5095762;28;20051;-62
2021/05/18 16:24:50;;;;;;;2.97;1.30;;;;;;;;;;5091492;28;20027;-62
2021/05/18 16:27:16;;;;;;;3.92;1.13;;;;;;;;;;5107779;28;20042;-62
2021/05/18 16:29:44;;;;;;;1.48;0.80;;;;;;;;;;5107660;28;20047;-62
2021/05/18 16:32:11;;;;;;;2.63;0.90;;;;;;;;;;5100909;28;20032;-62
2021/05/18 16:34:37;;;;;;;1.70;0.50;;;;;;;;;;5097422;28;20109;-61
2021/05/18 16:37:02;;;;;;;1.10;0.52;;;;;;;;;;5099754;28;20028;-62
2021/05/18 16:39:27;;;;;;;2.42;0.70;;;;;;;;;;5105492;28;20043;-61
2021/05/18 16:41:55;;;;;;;1.92;0.60;;;;;;;;;;5102959;28;20024;-61
2021/05/18 16:44:21;;;;;;;3.53;0.40;;;;;;;;;;5097617;28;20447;-61
2021/05/18 16:46:47;;;;;;;2.25;0.50;;;;;;;;;;5110524;28;20103;-62
2021/05/18 16:49:13;;;;;;;1.30;0.40;;;;;;;;;;5109617;28;20023;-61
2021/05/18 16:51:38;;;;;;;0.68;0.43;;;;;;;;;;5113298;28;20015;-62
2021/05/18 16:54:06;;;;;;;1.60;0.52;;;;;;;;;;5103110;28;20075;-62
2021/05/18 16:56:31;;;;;;;1.85;0.32;;;;;;;;;;5100964;28;20022;-61
2021/05/18 16:58:56;;;;;;;2.13;0.60;;;;;;;;;;5108596;28;20106;-61
2021/05/18 17:01:22;;;;;;;2.95;0.80;;;;;;;;;;5094702;28;20024;-61
2021/05/18 17:03:47;;;;;;;3.03;0.93;;;;;;;;;;5104916;28;20422;-61
2021/05/18 17:06:13;;;;;;;1.92;0.93;;;;;;;;;;5103020;28;20054;-61
2021/05/18 17:08:38;;;;;;;1.65;0.95;;;;;;;;;;5095014;28;20031;-62
2021/05/18 17:11:03;;;;;;;2.05;0.82;;;;;;;;;;5104339;28;20035;-62
2021/05/18 17:13:29;;;;;;;1.88;1.15;;;;;;;;;;5108491;28;20019;-62
2021/05/18 17:15:54;;;;;;;1.90;0.90;;;;;;;;;;5102777;28;20526;-62
2021/05/18 17:18:19;;;;;;;2.45;1.30;;;;;;;;;;5099831;28;20073;-62
2021/05/18 17:20:45;;;;;;;2.13;1.20;;;;;;;;;;5093268;28;20020;-62
2021/05/18 17:23:12;;;;;;;1.23;1.02;;;;;;;;;;5108877;28;20081;-61
2021/05/18 17:25:37;;;;;;;3.75;1.25;;;;;;;;;;5091364;28;20712;-63
2021/05/18 17:28:02;;;;;;;1.90;1.15;;;;;;;;;;5103286;28;20110;-62
2021/05/18 17:30:28;;;;;;;2.05;0.90;;;;;;;;;;5089641;28;20043;-63
2021/05/18 17:32:54;;;;;;;2.72;0.88;;;;;;;;;;5108251;28;20037;-63
2021/05/18 17:35:20;;;;;;;1.23;0.50;;;;;;;;;;5092081;28;20551;-64
2021/05/18 17:37:45;;;;;;;2.00;0.93;;;;;;;;;;5103916;28;20032;-63
2021/05/18 17:40:12;;;;;;;3.17;1.98;;;;;;;;;;5101204;28;20073;-63
2021/05/18 17:42:37;;;;;;;1.45;0.63;;;;;;;;;;5096266;28;20028;-63
2021/05/18 17:45:05;;;;;;;1.50;0.70;;;;;;;;;;5093473;28;20031;-63
2021/05/18 17:47:31;;;;;;;1.27;0.65;;;;;;;;;;5095099;28;20023;-63
2021/05/18 17:49:57;;;;;;;1.63;0.75;;;;;;;;;;5094442;28;20027;-63
2021/05/18 17:52:22;;;;;;;2.55;1.15;;;;;;;;;;5096639;28;20030;-62
2021/05/18 17:54:47;;;;;;;2.33;0.95;;;;;;;;;;5099308;28;20383;-67
2021/05/18 17:57:13;;;;;;;1.35;1.02;;;;;;;;;;5109654;28;20019;-64
2021/05/18 17:59:38;;;;;;;1.27;0.90;;;;;;;;;;5112099;28;20046;-65
2021/05/18 18:02:07;;;;;;;1.00;0.88;;;;;;;;;;5107553;28;20047;-63
2021/05/18 18:04:33;;;;;;;5.93;1.63;;;;;;;;;;5089735;28;20403;-62
2021/05/18 18:06:58;;;;;;;2.58;0.95;;;;;;;;;;5090429;28;20032;-64
2021/05/18 18:09:24;;;;;;;1.00;0.40;;;;;;;;;;5104860;28;20084;-63
2021/05/18 18:11:50;;;;;;;1.33;0.60;;;;;;;;;;5101190;28;20035;-63
2021/05/18 18:14:15;;;;;;;0.93;0.50;;;;;;;;;;5102763;28;20016;-63
2021/05/18 18:16:40;;;;;;;2.08;0.50;;;;;;;;;;5104561;28;20454;-64
2021/05/18 18:19:05;;;;;;;0.63;0.43;;;;;;;;;;5108114;28;20077;-63
2021/05/18 18:21:31;;;;;;;0.90;0.45;;;;;;;;;;5096187;28;20024;-63
2021/05/18 18:23:56;;;;;;;0.95;0.50;;;;;;;;;;5101850;28;20322;-64
2021/05/18 18:26:23;;;;;;;1.70;0.50;;;;;;;;;;5110758;28;20516;-64
2021/05/18 18:28:48;;;;;;;0.80;0.40;;;;;;;;;;5100189;28;20024;-64
2021/05/18 18:31:13;;;;;;;0.80;0.43;;;;;;;;;;5107373;28;20084;-63
2021/05/18 18:33:39;;;;;;;1.23;0.40;;;;;;;;;;5108226;28;20054;-64
2021/05/18 18:36:04;;;;;;;1.58;0.30;;;;;;;;;;5101318;28;20407;-63
2021/05/18 18:38:29;;;;;;;1.15;0.52;;;;;;;;;;5101573;28;20123;-65
2021/05/18 18:40:55;;;;;;;1.30;0.63;;;;;;;;;;5099589;28;20054;-65
2021/05/18 18:43:20;;;;;;;1.00;0.60;;;;;;;;;;5111732;27;20020;-65
2021/05/18 18:45:46;;;;;;;1.77;0.55;;;;;;;;;;5100324;28;20100;-64
2021/05/18 18:48:13;;;;;;;1.40;0.60;;;;;;;;;;5112674;28;20012;-64
2021/05/18 18:50:41;;;;;;;1.17;0.70;;;;;;;;;;5096820;28;20475;-63
2021/05/18 18:55:35;;;;;;;0.85;0.47;;;;;;;;;;5097758;28;20448;-63
2021/05/18 18:58:00;;;;;;;1.25;0.60;;;;;;;;;;5100742;28;20024;-62
2021/05/18 19:00:25;;;;;;;1.02;0.70;;;;;;;;;;5096527;28;20032;-64
2021/05/18 19:03:01;;;;;;;1.23;0.80;;;;;;;;;;5095820;28;20019;-64
2021/05/18 19:13:07;;;;;;;0.88;0.70;;;;;;;;;;5105448;28;20049;-64
2021/05/18 19:15:32;;;;;;;1.52;0.80;;;;;;;;;;5099593;28;20058;-64
2021/05/18 19:17:57;;;;;;;0.82;0.82;;;;;;;;;;5099015;28;20035;-64
2021/05/18 19:20:22;;;;;;;1.10;0.90;;;;;;;;;;5106402;28;20015;-63
2021/05/18 19:22:48;;;;;;;2.10;1.02;;;;;;;;;;5098130;28;20020;-64
2021/05/18 19:25:13;;;;;;;1.77;1.13;;;;;;;;;;5099508;28;20024;-64
2021/05/18 19:27:43;;;;;;;2.40;1.48;;;;;;;;;;5097262;28;20526;-64
2021/05/18 19:30:10;;;;;;;2.78;0.95;;;;;;;;;;5094441;28;20054;-63
2021/05/18 19:32:35;;;;;;;0.73;0.73;;;;;;;;;;5112315;28;20489;-63
2021/05/18 19:35:01;;;;;;;0.80;0.70;;;;;;;;;;5105824;28;20019;-64
2021/05/18 19:37:38;;;;;;;0.93;0.40;;;;;;;;;;5099296;28;20024;-65
2021/05/18 19:42:56;;;;;;;2.03;0.77;;;;;;;;;;5108012;28;20030;-64
2021/05/18 19:50:21;;;;;;;1.13;0.65;;;;;;;;;;5109897;28;20429;-65
2021/05/18 19:52:50;;;;;;;1.25;0.65;;;;;;;;;;5102904;28;20032;-65